createdAt,value
2022-09-14T00:01:57.652Z,75.72
2022-09-14T00:04:24.315Z,75.57
2022-09-14T00:06:51.773Z,75.82
2022-09-14T00:09:22.732Z,75.98
2022-09-14T00:11:49.429Z,76.09
2022-09-14T00:14:16.194Z,76.10
2022-09-14T00:16:42.984Z,76.44
2022-09-14T00:19:23.596Z,77.09
2022-09-14T00:21:57.681Z,76.89
2022-09-14T00:24:25.029Z,76.83
2022-09-14T00:26:51.730Z,77.01
2022-09-14T00:29:18.413Z,76.96
2022-09-14T00:31:45.555Z,76.94
2022-09-14T00:34:13.924Z,77.00
2022-09-14T00:36:45.047Z,77.01
2022-09-14T00:39:12.138Z,77.24
2022-09-14T00:41:40.409Z,77.14
2022-09-14T00:44:13.015Z,77.40
2022-09-14T00:46:41.564Z,77.02
2022-09-14T00:49:29.737Z,77.61
2022-09-14T00:52:08.660Z,78.48
2022-09-14T00:54:41.574Z,78.91
2022-09-14T00:57:08.147Z,78.86
2022-09-14T00:59:37.183Z,78.69
2022-09-14T01:02:04.237Z,79.18
2022-09-14T01:04:31.655Z,79.70
2022-09-14T01:07:07.142Z,79.66
2022-09-14T01:09:56.387Z,79.40
2022-09-14T01:12:30.067Z,79.44
2022-09-14T01:15:08.579Z,79.22
2022-09-14T01:17:53.679Z,79.52
2022-09-14T01:20:35.156Z,79.55
2022-09-14T01:23:07.742Z,79.71
2022-09-14T01:25:49.435Z,79.70
2022-09-14T01:28:33.864Z,79.59
2022-09-14T01:31:01.469Z,79.63
2022-09-14T01:33:31.786Z,79.64
2022-09-14T01:35:59.758Z,79.56
2022-09-14T01:38:47.061Z,79.92
2022-09-14T01:41:15.558Z,80.01
2022-09-14T01:43:44.665Z,80.08
2022-09-14T01:46:14.643Z,80.00
2022-09-14T01:49:08.231Z,80.50
2022-09-14T01:51:41.110Z,80.25
2022-09-14T01:54:19.484Z,80.43
2022-09-14T01:56:55.874Z,80.39
2022-09-14T01:59:28.207Z,80.54
2022-09-14T02:02:07.498Z,80.24
2022-09-14T02:04:49.991Z,80.00
2022-09-14T02:07:16.671Z,80.59
2022-09-14T02:09:43.244Z,80.43
2022-09-14T02:12:09.928Z,80.46
2022-09-14T02:14:36.475Z,80.44
2022-09-14T02:17:03.109Z,81.58
2022-09-14T02:19:31.538Z,81.52
2022-09-14T02:21:59.558Z,81.14
2022-09-14T02:24:27.253Z,80.92
2022-09-14T02:26:54.054Z,81.45
2022-09-14T02:29:20.619Z,81.55
2022-09-14T02:31:52.963Z,81.69
2022-09-14T02:34:41.149Z,81.95
2022-09-14T02:37:20.935Z,82.02
2022-09-14T02:40:12.649Z,81.76
2022-09-14T02:43:01.103Z,81.68
2022-09-14T02:45:29.373Z,82.11
2022-09-14T02:48:12.528Z,81.85
2022-09-14T02:50:51.462Z,82.21
2022-09-14T02:53:28.804Z,82.17
2022-09-14T02:55:57.740Z,82.22
2022-09-14T02:58:24.475Z,82.60
2022-09-14T03:00:51.190Z,82.81
2022-09-14T03:03:19.202Z,83.13
2022-09-14T03:05:45.774Z,83.25
2022-09-14T03:08:12.329Z,83.09
2022-09-14T03:10:39.089Z,83.34
2022-09-14T03:13:05.696Z,83.20
2022-09-14T03:15:32.354Z,83.44
2022-09-14T03:17:59.387Z,83.29
2022-09-14T03:20:27.732Z,83.46
2022-09-14T03:22:54.502Z,83.13
2022-09-14T03:25:23.089Z,83.37
2022-09-14T03:27:54.102Z,83.55
2022-09-14T03:30:20.677Z,83.30
2022-09-14T03:32:47.410Z,83.58
2022-09-14T03:35:14.188Z,83.39
2022-09-14T03:37:41.643Z,83.35
2022-09-14T03:40:09.079Z,83.66
2022-09-14T03:42:35.808Z,83.30
2022-09-14T03:45:02.610Z,83.58
2022-09-14T03:47:29.516Z,83.76
2022-09-14T03:49:56.116Z,83.96
2022-09-14T03:52:22.664Z,83.70
2022-09-14T03:54:49.219Z,83.86
2022-09-14T03:57:16.183Z,84.08
2022-09-14T03:59:43.839Z,84.54
2022-09-14T04:02:10.612Z,84.44
2022-09-14T04:04:37.263Z,84.21
2022-09-14T04:07:03.918Z,83.93
2022-09-14T04:09:30.569Z,83.86
2022-09-14T04:11:57.094Z,83.93
2022-09-14T04:14:23.707Z,83.65
2022-09-14T04:16:50.283Z,84.06
2022-09-14T04:19:16.979Z,83.56
2022-09-14T04:21:43.626Z,83.83
2022-09-14T04:24:15.014Z,83.63
2022-09-14T04:26:42.939Z,83.32
2022-09-14T04:29:10.590Z,83.34
2022-09-14T04:31:37.308Z,83.12
2022-09-14T04:34:03.977Z,83.23
2022-09-14T04:36:31.312Z,83.42
2022-09-14T04:38:59.669Z,83.37
2022-09-14T04:41:26.564Z,83.03
2022-09-14T04:43:53.382Z,83.19
2022-09-14T04:46:21.937Z,83.10
2022-09-14T04:48:48.741Z,83.07
2022-09-14T04:51:17.069Z,83.07
2022-09-14T04:53:44.237Z,83.32
2022-09-14T04:56:11.573Z,83.12
2022-09-14T04:58:41.931Z,83.84
2022-09-14T05:01:13.583Z,84.04
2022-09-14T05:03:40.492Z,84.15
2022-09-14T05:06:17.919Z,84.18
2022-09-14T05:08:44.699Z,84.61
2022-09-14T05:11:13.408Z,84.60
2022-09-14T05:13:40.075Z,84.41
2022-09-14T05:16:11.749Z,84.60
2022-09-14T05:18:38.419Z,84.29
2022-09-14T05:21:08.442Z,84.09
2022-09-14T05:23:35.451Z,84.32
2022-09-14T05:26:02.074Z,84.38
2022-09-14T05:28:28.743Z,84.15
2022-09-14T05:30:55.418Z,83.97
2022-09-14T05:33:22.116Z,83.91
2022-09-14T05:35:49.202Z,84.04
2022-09-14T05:38:15.769Z,83.82
2022-09-14T05:40:42.517Z,83.45
2022-09-14T05:43:09.238Z,83.46
2022-09-14T05:45:35.983Z,83.24
2022-09-14T05:48:04.842Z,83.43
2022-09-14T05:50:32.511Z,83.41
2022-09-14T05:52:59.123Z,83.72
2022-09-14T05:55:25.909Z,83.94
2022-09-14T05:57:52.593Z,83.77
2022-09-14T06:00:19.531Z,83.21
2022-09-14T06:02:49.900Z,82.83
2022-09-14T06:05:16.846Z,82.47
2022-09-14T06:07:43.778Z,82.15
2022-09-14T06:10:10.726Z,81.80
2022-09-14T06:12:37.304Z,81.84
2022-09-14T06:15:04.162Z,81.91
2022-09-14T06:17:31.385Z,81.96
2022-09-14T06:20:03.545Z,82.85
2022-09-14T06:22:32.039Z,82.68
2022-09-14T06:24:58.640Z,83.33
2022-09-14T06:27:25.535Z,83.18
2022-09-14T06:29:53.884Z,83.10
2022-09-14T06:32:21.003Z,83.38
2022-09-14T06:34:47.665Z,83.33
2022-09-14T06:37:14.279Z,83.97
2022-09-14T06:39:40.932Z,83.91
2022-09-14T06:42:07.612Z,83.53
2022-09-14T06:44:34.193Z,83.96
2022-09-14T06:47:00.820Z,83.55
2022-09-14T06:49:27.412Z,84.26
2022-09-14T06:51:56.572Z,83.88
2022-09-14T06:54:23.385Z,83.92
2022-09-14T06:56:49.991Z,83.95
2022-09-14T06:59:17.179Z,83.39
2022-09-14T07:01:45.544Z,83.94
2022-09-14T07:04:12.428Z,83.80
2022-09-14T07:06:41.538Z,84.25
2022-09-14T07:09:08.162Z,84.04
2022-09-14T07:11:34.810Z,84.30
2022-09-14T07:14:02.231Z,84.22
2022-09-14T07:16:30.070Z,84.58
2022-09-14T07:18:58.861Z,84.97
2022-09-14T07:21:25.789Z,84.92
2022-09-14T07:23:52.490Z,84.97
2022-09-14T07:26:20.448Z,84.65
2022-09-14T07:28:49.061Z,84.97
2022-09-14T07:31:29.066Z,84.62
2022-09-14T07:33:57.140Z,84.48
2022-09-14T07:36:24.131Z,84.05
2022-09-14T07:39:00.991Z,83.84
2022-09-14T07:41:29.137Z,83.18
2022-09-14T07:43:57.324Z,82.92
2022-09-14T07:46:24.081Z,82.87
2022-09-14T07:49:01.183Z,83.34
2022-09-14T07:51:28.607Z,82.98
2022-09-14T07:53:55.186Z,83.48
2022-09-14T07:56:21.952Z,83.58
2022-09-14T07:58:53.964Z,83.64
2022-09-14T08:01:30.386Z,83.33
2022-09-14T08:04:05.631Z,83.55
2022-09-14T08:06:32.522Z,83.51
2022-09-14T08:08:59.206Z,83.19
2022-09-14T08:11:28.039Z,83.89
2022-09-14T08:13:56.622Z,84.13
2022-09-14T08:16:23.565Z,83.85
2022-09-14T08:18:55.455Z,84.10
2022-09-14T08:21:22.135Z,83.68
2022-09-14T08:23:48.747Z,83.77
2022-09-14T08:26:20.299Z,83.38
2022-09-14T08:28:47.120Z,83.15
2022-09-14T08:31:27.260Z,82.99
2022-09-14T08:33:58.591Z,83.96
2022-09-14T08:36:26.752Z,83.84
2022-09-14T08:38:53.410Z,83.65
2022-09-14T08:41:30.235Z,83.56
2022-09-14T08:44:06.691Z,83.63
2022-09-14T08:46:35.052Z,83.68
2022-09-14T08:49:02.683Z,83.69
2022-09-14T08:51:29.346Z,83.98
2022-09-14T08:53:57.401Z,84.21
2022-09-14T08:56:31.998Z,84.24
2022-09-14T08:59:02.441Z,84.09
2022-09-14T09:01:31.837Z,84.50
2022-09-14T09:04:10.493Z,84.61
2022-09-14T09:06:46.036Z,84.66
2022-09-14T09:09:21.548Z,85.05
2022-09-14T09:11:49.365Z,85.01
2022-09-14T09:14:24.669Z,84.48
2022-09-14T09:16:54.331Z,84.58
2022-09-14T09:19:59.616Z,84.60
2022-09-14T09:22:27.979Z,84.31
2022-09-14T09:24:55.071Z,84.08
2022-09-14T09:27:23.359Z,84.63
2022-09-14T09:29:49.961Z,85.44
2022-09-14T09:32:23.882Z,86.24
2022-09-14T09:34:50.545Z,85.79
2022-09-14T09:37:18.867Z,86.06
2022-09-14T09:39:45.682Z,86.57
2022-09-14T09:42:26.181Z,85.72
2022-09-14T09:45:03.344Z,84.44
2022-09-14T09:47:30.308Z,83.87
2022-09-14T09:49:59.123Z,83.33
2022-09-14T09:52:25.707Z,81.61
2022-09-14T09:54:53.339Z,79.87
2022-09-14T09:57:23.424Z,80.74
2022-09-14T09:59:50.124Z,82.10
2022-09-14T10:02:25.953Z,81.33
2022-09-14T10:05:10.984Z,81.23
2022-09-14T10:07:48.661Z,80.79
2022-09-14T10:10:16.216Z,80.91
2022-09-14T10:12:47.593Z,80.80
2022-09-14T10:15:25.828Z,80.29
2022-09-14T10:18:09.091Z,79.54
2022-09-14T10:20:43.572Z,79.77
2022-09-14T10:23:19.349Z,79.30
2022-09-14T10:25:46.823Z,79.28
2022-09-14T10:28:29.392Z,79.95
2022-09-14T10:31:26.216Z,79.76
2022-09-14T10:33:56.739Z,80.61
2022-09-14T10:36:23.630Z,80.58
2022-09-14T10:39:09.603Z,79.62
2022-09-14T10:42:00.808Z,79.86
2022-09-14T10:44:46.073Z,78.58
2022-09-14T10:47:30.787Z,78.59
2022-09-14T10:50:19.679Z,78.85
2022-09-14T10:52:53.314Z,79.72
2022-09-14T10:55:43.820Z,79.82
2022-09-14T10:58:24.641Z,80.44
2022-09-14T11:00:57.871Z,80.42
2022-09-14T11:03:46.338Z,80.77
2022-09-14T11:06:34.646Z,79.88
2022-09-14T11:09:02.272Z,79.54
2022-09-14T11:11:49.851Z,80.41
2022-09-14T11:14:45.408Z,80.82
2022-09-14T11:17:14.890Z,81.46
2022-09-14T11:19:53.624Z,81.12
2022-09-14T11:22:26.100Z,81.21
2022-09-14T11:25:23.226Z,80.19
2022-09-14T11:28:09.895Z,80.33
2022-09-14T11:30:39.499Z,81.01
2022-09-14T11:33:10.120Z,81.30
2022-09-14T11:35:43.386Z,80.95
2022-09-14T11:38:14.468Z,81.20
2022-09-14T11:40:57.701Z,82.50
2022-09-14T11:43:42.424Z,82.47
2022-09-14T11:46:14.834Z,81.99
2022-09-14T11:48:49.750Z,81.98
2022-09-14T11:51:24.610Z,82.17
2022-09-14T11:53:51.192Z,81.92
2022-09-14T11:56:26.649Z,82.65
2022-09-14T11:59:01.279Z,83.02
2022-09-14T12:01:38.423Z,83.22
2022-09-14T12:04:07.478Z,83.06
2022-09-14T12:06:37.002Z,83.34
2022-09-14T12:09:12.847Z,83.05
2022-09-14T12:11:39.432Z,83.50
2022-09-14T12:14:29.609Z,83.20
2022-09-14T12:17:22.601Z,83.04
2022-09-14T12:19:53.582Z,82.83
2022-09-14T12:22:21.270Z,82.84
2022-09-14T12:25:20.984Z,82.85
2022-09-14T12:27:48.293Z,83.21
2022-09-14T12:30:38.447Z,83.37
2022-09-14T12:33:30.894Z,83.24
2022-09-14T12:36:06.915Z,83.26
2022-09-14T12:38:43.316Z,83.59
2022-09-14T12:41:13.009Z,83.00
2022-09-14T12:43:39.803Z,83.11
2022-09-14T12:46:36.377Z,83.26
2022-09-14T12:49:05.566Z,83.66
2022-09-14T12:51:43.721Z,83.50
2022-09-14T12:54:16.577Z,83.76
2022-09-14T12:56:49.167Z,83.66
2022-09-14T12:59:30.183Z,83.91
2022-09-14T13:02:10.215Z,84.13
2022-09-14T13:04:37.693Z,83.78
2022-09-14T13:07:13.770Z,84.31
2022-09-14T13:09:44.547Z,84.17
2022-09-14T13:12:11.139Z,84.27
2022-09-14T13:14:59.291Z,84.30
2022-09-14T13:17:25.856Z,83.93
2022-09-14T13:19:57.086Z,84.07
2022-09-14T13:22:29.463Z,84.42
2022-09-14T13:24:58.865Z,85.25
2022-09-14T13:27:26.071Z,85.05
2022-09-14T13:30:02.734Z,84.90
2022-09-14T13:32:29.315Z,84.12
2022-09-14T13:34:56.096Z,84.04
2022-09-14T13:37:22.678Z,84.69
2022-09-14T13:39:51.880Z,84.08
2022-09-14T13:42:18.566Z,83.84
2022-09-14T13:44:46.666Z,84.08
2022-09-14T13:47:15.010Z,84.22
2022-09-14T13:49:42.219Z,84.12
2022-09-14T13:52:34.024Z,84.30
2022-09-14T13:55:23.913Z,84.47
2022-09-14T13:58:14.600Z,84.53
2022-09-14T14:01:00.117Z,84.30
2022-09-14T14:03:28.326Z,84.47
2022-09-14T14:05:55.098Z,84.56
2022-09-14T14:08:41.920Z,85.01
2022-09-14T14:11:08.647Z,84.77
2022-09-14T14:13:37.280Z,84.45
2022-09-14T14:16:20.925Z,84.42
2022-09-14T14:18:56.843Z,84.75
2022-09-14T14:21:29.021Z,84.79
2022-09-14T14:24:19.685Z,84.98
2022-09-14T14:26:50.545Z,84.67
2022-09-14T14:29:18.340Z,84.52
2022-09-14T14:31:44.975Z,84.52
2022-09-14T14:34:23.314Z,84.69
2022-09-14T14:36:50.388Z,85.07
2022-09-14T14:39:21.457Z,85.14
2022-09-14T14:41:48.553Z,85.36
2022-09-14T14:44:25.544Z,85.41
2022-09-14T14:46:52.224Z,85.77
2022-09-14T14:49:20.193Z,85.77
2022-09-14T14:51:46.942Z,85.62
2022-09-14T14:54:16.812Z,85.45
2022-09-14T14:56:44.290Z,85.88
2022-09-14T14:59:27.702Z,85.68
2022-09-14T15:01:55.016Z,86.38
2022-09-14T15:04:21.779Z,86.21
2022-09-14T15:06:48.486Z,86.23
2022-09-14T15:09:16.909Z,85.98
2022-09-14T15:11:43.647Z,85.94
2022-09-14T15:14:18.177Z,86.10
2022-09-14T15:16:45.004Z,85.96
2022-09-14T15:19:11.653Z,85.64
2022-09-14T15:21:38.771Z,85.41
2022-09-14T15:24:05.792Z,85.87
2022-09-14T15:26:33.220Z,85.85
2022-09-14T15:29:00.054Z,85.99
2022-09-14T15:31:26.711Z,85.72
2022-09-14T15:33:53.302Z,85.88
2022-09-14T15:36:39.873Z,85.76
2022-09-14T15:39:07.010Z,85.77
2022-09-14T15:41:33.637Z,85.75
2022-09-14T15:44:00.934Z,85.95
2022-09-14T15:46:27.498Z,85.76
2022-09-14T15:48:54.087Z,85.96
2022-09-14T15:51:20.779Z,85.78
2022-09-14T15:53:47.834Z,85.87
2022-09-14T15:56:15.181Z,85.96
2022-09-14T15:58:47.232Z,85.85
2022-09-14T16:01:16.748Z,85.97
2022-09-14T16:03:43.581Z,86.30
2022-09-14T16:06:11.069Z,86.42
2022-09-14T16:08:37.838Z,86.38
2022-09-14T16:11:05.233Z,86.37
2022-09-14T16:13:35.661Z,86.36
2022-09-14T16:16:08.758Z,86.46
2022-09-14T16:18:35.837Z,86.36
2022-09-14T16:21:10.690Z,86.50
2022-09-14T16:23:38.027Z,86.50
2022-09-14T16:26:13.647Z,86.38
2022-09-14T16:28:44.526Z,86.62
2022-09-14T16:31:13.098Z,86.93
2022-09-14T16:33:40.969Z,86.73
2022-09-14T16:36:09.728Z,87.45
2022-09-14T16:38:36.426Z,87.23
2022-09-14T16:41:03.132Z,87.77
2022-09-14T16:43:30.149Z,87.32
2022-09-14T16:46:13.336Z,88.02
2022-09-14T16:48:42.377Z,87.63
2022-09-14T16:51:09.541Z,87.87
2022-09-14T16:53:37.348Z,87.89
2022-09-14T16:56:15.298Z,87.84
2022-09-14T16:58:42.344Z,88.03
2022-09-14T17:01:09.932Z,88.01
2022-09-14T17:03:36.877Z,87.98
2022-09-14T17:06:04.499Z,88.07
2022-09-14T17:08:31.798Z,88.11
2022-09-14T17:10:58.874Z,88.67
2022-09-14T17:13:25.954Z,88.28
2022-09-14T17:15:53.036Z,88.24
2022-09-14T17:18:19.749Z,88.33
2022-09-14T17:21:06.149Z,88.41
2022-09-14T17:23:33.058Z,88.21
2022-09-14T17:25:59.656Z,88.61
2022-09-14T17:28:28.268Z,88.42
2022-09-14T17:30:57.588Z,88.46
2022-09-14T17:33:24.516Z,88.62
2022-09-14T17:35:52.945Z,88.65
2022-09-14T17:38:19.767Z,88.50
2022-09-14T17:40:46.379Z,88.48
2022-09-14T17:43:12.998Z,88.46
2022-09-14T17:45:39.583Z,88.61
2022-09-14T17:48:07.279Z,88.49
2022-09-14T17:50:33.887Z,88.45
2022-09-14T17:53:00.468Z,88.30
2022-09-14T17:55:27.041Z,88.43
2022-09-14T17:57:53.666Z,88.57
2022-09-14T18:00:20.304Z,89.02
2022-09-14T18:02:51.119Z,88.97
2022-09-14T18:05:18.112Z,89.36
2022-09-14T18:07:46.306Z,89.21
2022-09-14T18:10:17.686Z,89.41
2022-09-14T18:12:44.983Z,89.40
2022-09-14T18:15:15.241Z,89.74
2022-09-14T18:17:42.887Z,89.84
2022-09-14T18:20:10.355Z,90.04
2022-09-14T18:22:37.682Z,89.84
2022-09-14T18:25:08.518Z,89.86
2022-09-14T18:27:35.161Z,89.92
2022-09-14T18:30:02.774Z,89.84
2022-09-14T18:32:29.354Z,89.76
2022-09-14T18:34:55.923Z,89.93
2022-09-14T18:37:23.438Z,89.69
2022-09-14T18:39:50.136Z,89.34
2022-09-14T18:42:16.788Z,89.34
2022-09-14T18:44:43.374Z,89.20
2022-09-14T18:47:09.978Z,88.65
2022-09-14T18:49:36.560Z,89.09
2022-09-14T18:52:03.254Z,88.83
2022-09-14T18:54:29.879Z,89.16
2022-09-14T18:56:56.538Z,89.94
2022-09-14T18:59:23.707Z,89.52
2022-09-14T19:01:50.527Z,89.59
2022-09-14T19:04:17.146Z,90.04
2022-09-14T19:06:44.595Z,90.04
2022-09-14T19:09:11.373Z,90.12
2022-09-14T19:11:37.969Z,90.15
2022-09-14T19:14:09.436Z,90.19
2022-09-14T19:16:40.065Z,90.10
2022-09-14T19:19:07.399Z,90.31
2022-09-14T19:21:34.099Z,90.14
2022-09-14T19:24:02.472Z,90.26
2022-09-14T19:26:31.496Z,90.35
2022-09-14T19:29:03.442Z,90.15
2022-09-14T19:31:30.866Z,91.17
2022-09-14T19:34:01.242Z,91.75
2022-09-14T19:36:28.247Z,91.80
2022-09-14T19:38:55.245Z,91.63
2022-09-14T19:41:22.082Z,91.17
2022-09-14T19:43:48.835Z,91.35
2022-09-14T19:46:18.278Z,91.69
2022-09-14T19:48:45.125Z,91.96
2022-09-14T19:51:16.974Z,91.70
2022-09-14T19:53:43.840Z,92.53
2022-09-14T19:56:14.621Z,92.88
2022-09-14T19:58:45.314Z,92.86
2022-09-14T20:01:11.995Z,93.42
2022-09-14T20:03:39.676Z,93.68
2022-09-14T20:06:08.926Z,94.28
2022-09-14T20:08:35.757Z,94.03
2022-09-14T20:11:07.389Z,93.82
2022-09-14T20:13:34.746Z,93.70
2022-09-14T20:16:08.972Z,93.16
2022-09-14T20:18:35.642Z,93.19
2022-09-14T20:21:02.219Z,93.10
2022-09-14T20:23:28.809Z,93.06
2022-09-14T20:25:55.403Z,93.22
2022-09-14T20:28:25.591Z,93.16
2022-09-14T20:30:59.230Z,93.40
2022-09-14T20:33:26.045Z,93.46
2022-09-14T20:36:03.816Z,93.51
2022-09-14T20:38:30.428Z,93.61
2022-09-14T20:41:02.643Z,94.04
2022-09-14T20:43:33.301Z,94.21
2022-09-14T20:46:08.088Z,94.15
2022-09-14T20:48:34.830Z,93.98
2022-09-14T20:51:01.753Z,94.13
2022-09-14T20:53:31.502Z,94.20
2022-09-14T20:56:06.650Z,94.27
2022-09-14T20:58:33.679Z,93.94
2022-09-14T21:01:09.757Z,94.15
2022-09-14T21:03:37.102Z,94.36
2022-09-14T21:06:04.848Z,94.66
2022-09-14T21:08:33.145Z,94.73
2022-09-14T21:11:07.191Z,95.17
2022-09-14T21:13:34.187Z,95.16
2022-09-14T21:16:12.173Z,94.95
2022-09-14T21:18:39.069Z,94.92
2022-09-14T21:21:07.061Z,94.91
2022-09-14T21:23:33.757Z,94.49
2022-09-14T21:26:00.327Z,94.61
2022-09-14T21:28:27.103Z,94.16
2022-09-14T21:31:06.573Z,94.00
2022-09-14T21:33:33.961Z,94.14
2022-09-14T21:36:04.746Z,94.57
2022-09-14T21:38:31.545Z,94.98
2022-09-14T21:40:58.148Z,95.43
2022-09-14T21:43:25.006Z,95.72
2022-09-14T21:45:51.744Z,95.85
2022-09-14T21:48:18.421Z,96.00
2022-09-14T21:50:47.408Z,96.14
2022-09-14T21:53:16.347Z,95.82
2022-09-14T21:55:42.976Z,95.64
2022-09-14T21:58:09.573Z,95.41
2022-09-14T22:00:36.221Z,95.72
2022-09-14T22:03:02.823Z,95.79
2022-09-14T22:05:29.403Z,95.48
2022-09-14T22:07:56.039Z,95.65
2022-09-14T22:10:22.593Z,95.37
2022-09-14T22:12:49.224Z,95.30
2022-09-14T22:15:15.979Z,95.31
2022-09-14T22:17:43.006Z,95.53
2022-09-14T22:20:10.270Z,95.55
2022-09-14T22:22:37.246Z,95.67
2022-09-14T22:25:04.951Z,95.72
2022-09-14T22:27:31.885Z,96.10
2022-09-14T22:29:58.898Z,96.17
2022-09-14T22:32:25.446Z,96.46
2022-09-14T22:34:52.083Z,96.39
2022-09-14T22:37:18.725Z,96.82
2022-09-14T22:39:45.385Z,96.46
2022-09-14T22:42:12.209Z,96.05
2022-09-14T22:44:38.822Z,95.68
2022-09-14T22:47:05.469Z,95.72
2022-09-14T22:49:32.091Z,95.58
2022-09-14T22:51:58.670Z,95.66
2022-09-14T22:54:25.273Z,95.49
2022-09-14T22:56:51.853Z,95.17
2022-09-14T22:59:18.450Z,94.67
2022-09-14T23:01:45.106Z,94.30
2022-09-14T23:04:12.974Z,93.92
2022-09-14T23:06:45.863Z,93.83
2022-09-14T23:09:14.901Z,93.91
2022-09-14T23:11:42.337Z,93.75
2022-09-14T23:14:08.926Z,93.93
2022-09-14T23:16:35.565Z,94.29
2022-09-14T23:19:03.241Z,94.29
2022-09-14T23:21:31.075Z,94.44
2022-09-14T23:24:02.078Z,94.69
2022-09-14T23:26:28.954Z,94.99
2022-09-14T23:29:00.802Z,95.38
2022-09-14T23:31:28.450Z,95.68
2022-09-14T23:33:56.936Z,95.92
2022-09-14T23:36:23.583Z,95.73
2022-09-14T23:38:50.309Z,96.05
2022-09-14T23:41:17.835Z,96.03
2022-09-14T23:43:44.568Z,95.96
2022-09-14T23:46:12.207Z,95.73
2022-09-14T23:48:38.986Z,95.54
2022-09-14T23:51:07.362Z,96.23
2022-09-14T23:53:34.270Z,96.07
2022-09-14T23:56:02.155Z,96.30
2022-09-14T23:58:28.752Z,96.55
